createdAt,value
2023-05-09T00:02:00.261Z,59.57
2023-05-09T00:04:26.741Z,59.91
2023-05-09T00:06:53.173Z,60.19
2023-05-09T00:09:19.613Z,60.38
2023-05-09T00:11:46.075Z,60.17
2023-05-09T00:14:13.936Z,59.64
2023-05-09T00:16:40.799Z,60.42
2023-05-09T00:19:07.494Z,60.08
2023-05-09T00:21:34.427Z,60.93
2023-05-09T00:24:01.298Z,61.17
2023-05-09T00:26:28.054Z,61.80
2023-05-09T00:28:54.472Z,61.16
2023-05-09T00:31:21.140Z,61.78
2023-05-09T00:33:47.585Z,61.63
2023-05-09T00:36:14.009Z,62.02
2023-05-09T00:38:40.412Z,62.01
2023-05-09T00:41:06.885Z,62.60
2023-05-09T00:43:33.339Z,61.66
2023-05-09T00:45:59.764Z,62.28
2023-05-09T00:48:26.309Z,62.38
2023-05-09T00:50:53.155Z,62.20
2023-05-09T00:53:20.727Z,62.71
2023-05-09T00:55:47.345Z,63.00
2023-05-09T00:58:13.958Z,62.54
2023-05-09T01:00:40.735Z,63.27
2023-05-09T01:03:07.624Z,62.86
2023-05-09T01:05:51.528Z,63.20
2023-05-09T01:08:26.885Z,63.13
2023-05-09T01:11:27.418Z,62.71
2023-05-09T01:14:15.552Z,63.62
2023-05-09T01:16:49.969Z,63.44
2023-05-09T01:19:25.401Z,63.25
2023-05-09T01:21:52.981Z,63.13
2023-05-09T01:24:33.693Z,63.25
2023-05-09T01:27:15.700Z,63.07
2023-05-09T01:29:55.260Z,63.43
2023-05-09T01:32:26.291Z,63.55
2023-05-09T01:34:54.367Z,63.35
2023-05-09T01:37:28.679Z,63.27
2023-05-09T01:40:00.286Z,63.90
2023-05-09T01:42:31.894Z,63.30
2023-05-09T01:44:59.300Z,63.54
2023-05-09T01:47:26.947Z,63.70
2023-05-09T01:49:55.036Z,63.06
2023-05-09T01:52:23.188Z,62.30
2023-05-09T01:54:51.328Z,63.04
2023-05-09T01:57:19.764Z,63.47
2023-05-09T01:59:47.815Z,63.25
2023-05-09T02:02:14.983Z,62.95
2023-05-09T02:04:43.429Z,63.17
2023-05-09T02:07:11.576Z,63.33
2023-05-09T02:09:38.267Z,63.71
2023-05-09T02:12:04.860Z,64.03
2023-05-09T02:14:31.692Z,63.27
2023-05-09T02:16:58.511Z,63.93
2023-05-09T02:19:24.988Z,63.72
2023-05-09T02:21:51.416Z,63.67
2023-05-09T02:24:17.855Z,63.78
2023-05-09T02:26:44.406Z,63.86
2023-05-09T02:29:11.789Z,63.87
2023-05-09T02:31:41.713Z,63.41
2023-05-09T02:34:09.671Z,63.65
2023-05-09T02:36:36.564Z,64.21
2023-05-09T02:39:03.080Z,63.49
2023-05-09T02:41:30.076Z,63.57
2023-05-09T02:43:56.508Z,64.09
2023-05-09T02:46:23.033Z,63.58
2023-05-09T02:48:49.488Z,63.56
2023-05-09T02:51:15.966Z,63.91
2023-05-09T02:53:42.490Z,63.71
2023-05-09T02:56:10.828Z,64.03
2023-05-09T02:58:37.239Z,64.11
2023-05-09T03:01:04.143Z,64.07
2023-05-09T03:03:33.894Z,64.11
2023-05-09T03:06:02.086Z,63.87
2023-05-09T03:08:28.485Z,64.41
2023-05-09T03:10:55.019Z,63.84
2023-05-09T03:13:21.780Z,64.57
2023-05-09T03:18:14.702Z,64.06
2023-05-09T03:20:41.127Z,64.19
2023-05-09T03:23:07.603Z,63.96
2023-05-09T03:25:34.022Z,64.47
2023-05-09T03:28:00.468Z,64.34
2023-05-09T03:30:27.190Z,64.26
2023-05-09T03:32:55.372Z,64.43
2023-05-09T03:35:21.931Z,64.24
2023-05-09T03:37:48.369Z,64.63
2023-05-09T03:40:14.956Z,64.65
2023-05-09T03:42:48.653Z,64.71
2023-05-09T03:45:15.327Z,65.01
2023-05-09T03:47:43.140Z,65.14
2023-05-09T03:50:10.814Z,65.26
2023-05-09T03:52:37.474Z,65.23
2023-05-09T03:55:05.866Z,64.87
2023-05-09T03:57:35.756Z,64.84
2023-05-09T04:00:04.878Z,64.73
2023-05-09T04:02:40.572Z,64.62
2023-05-09T04:05:08.205Z,64.42
2023-05-09T04:07:37.528Z,64.14
2023-05-09T04:10:04.489Z,64.44
2023-05-09T04:12:30.988Z,64.71
2023-05-09T04:14:57.437Z,64.52
2023-05-09T04:17:25.172Z,64.23
2023-05-09T04:19:51.986Z,64.67
2023-05-09T04:22:19.103Z,64.63
2023-05-09T04:24:45.552Z,64.50
2023-05-09T04:27:12.007Z,64.34
2023-05-09T04:29:38.959Z,64.14
2023-05-09T04:32:05.517Z,64.08
2023-05-09T04:34:32.059Z,63.78
2023-05-09T04:37:03.165Z,64.12
2023-05-09T04:39:30.983Z,63.59
2023-05-09T04:42:05.048Z,63.29
2023-05-09T04:44:31.859Z,62.90
2023-05-09T04:46:59.819Z,63.05
2023-05-09T04:49:27.564Z,62.05
2023-05-09T04:51:53.997Z,61.87
2023-05-09T04:54:21.338Z,61.51
2023-05-09T04:56:50.892Z,61.30
2023-05-09T04:59:18.186Z,61.07
2023-05-09T05:01:46.148Z,60.86
2023-05-09T05:04:12.942Z,60.73
2023-05-09T05:06:39.433Z,60.63
2023-05-09T05:09:06.516Z,59.73
2023-05-09T05:11:33.041Z,59.67
2023-05-09T05:13:59.834Z,58.63
2023-05-09T05:16:26.414Z,58.29
2023-05-09T05:18:53.046Z,58.71
2023-05-09T05:21:20.072Z,58.66
2023-05-09T05:23:46.536Z,58.67
2023-05-09T05:26:14.251Z,57.59
2023-05-09T05:28:40.863Z,57.87
2023-05-09T05:31:07.418Z,56.68
2023-05-09T05:33:33.891Z,56.96
2023-05-09T05:36:01.433Z,56.23
2023-05-09T05:38:27.935Z,55.76
2023-05-09T05:40:56.343Z,55.61
2023-05-09T05:43:24.314Z,55.17
2023-05-09T05:45:51.110Z,54.95
2023-05-09T05:48:20.915Z,54.03
2023-05-09T05:50:47.708Z,53.31
2023-05-09T05:53:16.751Z,53.19
2023-05-09T05:55:45.869Z,53.68
2023-05-09T05:58:12.390Z,53.29
2023-05-09T06:00:39.452Z,52.54
2023-05-09T06:03:06.623Z,51.53
2023-05-09T06:05:43.544Z,52.09
2023-05-09T06:08:10.918Z,51.33
2023-05-09T06:10:37.321Z,50.78
2023-05-09T06:13:03.796Z,50.59
2023-05-09T06:15:30.905Z,50.47
2023-05-09T06:17:57.490Z,50.10
2023-05-09T06:20:23.990Z,49.88
2023-05-09T06:22:50.566Z,49.24
2023-05-09T06:25:17.241Z,49.23
2023-05-09T06:27:44.652Z,48.66
2023-05-09T06:30:24.574Z,48.64
2023-05-09T06:32:51.812Z,48.28
2023-05-09T06:35:18.375Z,48.25
2023-05-09T06:37:46.519Z,47.84
2023-05-09T06:40:14.221Z,47.08
2023-05-09T06:42:40.798Z,47.43
2023-05-09T06:45:07.573Z,46.79
2023-05-09T06:47:34.022Z,47.00
2023-05-09T06:50:00.457Z,47.29
2023-05-09T06:52:27.036Z,47.17
2023-05-09T06:54:54.181Z,47.18
2023-05-09T06:57:20.661Z,46.68
2023-05-09T06:59:47.164Z,46.35
2023-05-09T07:02:13.648Z,45.93
2023-05-09T07:04:40.168Z,46.35
2023-05-09T07:07:06.616Z,46.88
2023-05-09T07:09:33.137Z,46.39
2023-05-09T07:12:00.920Z,45.63
2023-05-09T07:14:27.499Z,45.62
2023-05-09T07:16:56.526Z,45.54
2023-05-09T07:19:28.737Z,46.13
2023-05-09T07:21:55.143Z,45.82
2023-05-09T07:24:21.533Z,45.32
2023-05-09T07:26:47.947Z,45.02
2023-05-09T07:29:14.373Z,45.23
2023-05-09T07:31:41.132Z,45.41
2023-05-09T07:34:07.629Z,44.82
2023-05-09T07:36:35.468Z,44.84
2023-05-09T07:39:02.037Z,44.48
2023-05-09T07:41:28.450Z,45.04
2023-05-09T07:43:54.860Z,44.48
2023-05-09T07:46:21.319Z,43.53
2023-05-09T07:48:47.905Z,43.74
2023-05-09T07:51:14.378Z,43.89
2023-05-09T07:53:40.759Z,43.29
2023-05-09T07:56:07.864Z,43.26
2023-05-09T07:58:34.286Z,43.41
2023-05-09T08:01:00.694Z,43.15
2023-05-09T08:03:27.220Z,43.73
2023-05-09T08:05:55.755Z,44.69
2023-05-09T08:08:22.858Z,43.58
2023-05-09T08:10:49.310Z,43.29
2023-05-09T08:13:15.815Z,43.36
2023-05-09T08:15:42.311Z,43.67
2023-05-09T08:18:08.793Z,43.35
2023-05-09T08:20:36.142Z,42.91
2023-05-09T08:23:02.582Z,42.40
2023-05-09T08:25:29.652Z,43.12
2023-05-09T08:27:56.110Z,42.13
2023-05-09T08:30:22.807Z,42.66
2023-05-09T08:32:49.400Z,43.08
2023-05-09T08:35:16.115Z,41.84
2023-05-09T08:37:42.812Z,41.80
2023-05-09T08:40:10.062Z,41.69
2023-05-09T08:42:37.668Z,41.56
2023-05-09T08:45:11.390Z,40.75
2023-05-09T08:47:38.691Z,41.57
2023-05-09T08:50:06.047Z,40.70
2023-05-09T08:52:33.523Z,40.57
2023-05-09T08:55:01.651Z,40.45
2023-05-09T08:57:28.266Z,40.71
2023-05-09T08:59:55.576Z,40.67
2023-05-09T09:02:22.339Z,41.06
2023-05-09T09:04:48.792Z,39.70
2023-05-09T09:07:15.952Z,40.05
2023-05-09T09:09:47.237Z,39.40
2023-05-09T09:12:16.101Z,39.59
2023-05-09T09:14:48.005Z,38.99
2023-05-09T09:17:19.551Z,37.99
2023-05-09T09:19:49.508Z,38.17
2023-05-09T09:22:18.986Z,38.64
2023-05-09T09:24:45.405Z,38.41
2023-05-09T09:27:11.818Z,39.25
2023-05-09T09:29:38.767Z,38.38
2023-05-09T09:32:06.618Z,37.96
2023-05-09T09:34:33.243Z,37.73
2023-05-09T09:36:59.722Z,37.83
2023-05-09T09:39:26.139Z,38.23
2023-05-09T09:41:52.568Z,37.38
2023-05-09T09:44:20.899Z,38.51
2023-05-09T09:46:55.272Z,37.01
2023-05-09T09:49:26.320Z,37.81
2023-05-09T09:51:57.775Z,37.72
2023-05-09T09:54:27.660Z,36.42
2023-05-09T09:56:54.980Z,37.24
2023-05-09T09:59:24.945Z,36.19
2023-05-09T10:02:07.174Z,37.16
2023-05-09T10:04:36.387Z,37.67
2023-05-09T10:07:05.881Z,36.79
2023-05-09T10:09:33.816Z,36.55
2023-05-09T10:12:06.160Z,36.26
2023-05-09T10:14:35.446Z,37.00
2023-05-09T10:17:04.357Z,36.15
2023-05-09T10:19:31.843Z,36.62
2023-05-09T10:22:04.305Z,36.85
2023-05-09T10:25:01.432Z,36.70
2023-05-09T10:27:30.991Z,35.20
